Time;durP1;ratioP1;P1;durP2;ratioP2;P2;SDS_P1;SDS_P2;PMS_P1;PMS_P2;Temp;Humidity;BMP_temperature;BMP_pressure;BME280_temperature;BME280_humidity;BME280_pressure;Samples;Min_cycle;Max_cycle;Signal;HPM_P1;HPM_P2
2022/04/07 00:00:48;;;;;;;2.50;1.77;;;8.90;99.90;;;;;;8380821;28;20217;-66
2022/04/07 00:04:49;;;;;;;3.63;1.90;;;8.80;1.00;;;;;;8393070;28;20208;-65
2022/04/07 00:08:50;;;;;;;3.00;2.03;;;8.70;1.00;;;;;;8380301;28;20205;-65
2022/04/07 00:12:51;;;;;;;2.87;2.00;;;8.70;99.90;;;;;;8381578;28;20238;-65
2022/04/07 00:16:52;;;;;;;3.67;2.17;;;8.70;86.40;;;;;;8380364;28;20573;-64
2022/04/07 00:20:53;;;;;;;3.43;2.10;;;8.80;99.90;;;;;;8382425;28;20220;-66
2022/04/07 00:24:54;;;;;;;2.77;1.90;;;8.80;99.90;;;;;;8372677;28;20680;-65
2022/04/07 00:28:54;;;;;;;2.90;1.80;;;8.70;99.90;;;;;;8382541;28;20544;-65
2022/04/07 00:32:55;;;;;;;4.37;2.20;;;8.70;1.00;;;;;;8382089;28;20205;-67
2022/04/07 00:36:56;;;;;;;4.83;2.10;;;8.70;1.00;;;;;;8380091;28;20224;-65
2022/04/07 00:40:57;;;;;;;2.50;1.90;;;8.70;99.90;;;;;;8381227;28;20279;-65
2022/04/07 00:44:58;;;;;;;3.50;2.47;;;8.70;99.90;;;;;;8379928;28;20221;-68
2022/04/07 00:48:58;;;;;;;4.37;2.37;;;8.70;99.90;;;;;;8378665;28;20208;-66
2022/04/07 00:53:00;;;;;;;3.93;2.17;;;8.70;99.90;;;;;;8380239;28;20244;-65
2022/04/07 00:57:01;;;;;;;2.77;2.10;;;8.70;99.90;;;;;;8396759;28;20285;-65
2022/04/07 01:01:03;;;;;;;3.10;2.20;;;8.60;99.90;;;;;;8378444;28;20240;-67
2022/04/07 01:05:05;;;;;;;3.07;2.00;;;8.70;92.60;;;;;;8381942;28;20219;-65
2022/04/07 01:09:05;;;;;;;4.80;1.80;;;8.70;1.00;;;;;;8378129;28;20265;-66
2022/04/07 01:13:06;;;;;;;4.57;2.10;;;8.70;1.00;;;;;;8381987;28;20205;-66
2022/04/07 01:17:07;;;;;;;2.20;1.90;;;8.80;99.90;;;;;;8380945;28;20476;-65
2022/04/07 01:21:10;;;;;;;3.73;2.10;;;8.70;99.90;;;;;;8384621;28;20239;-66
2022/04/07 01:25:11;;;;;;;2.47;1.80;;;8.70;99.90;;;;;;8379733;28;20200;-64
2022/04/07 01:29:19;;;;;;;3.50;2.00;;;8.60;99.90;;;;;;8376619;28;20219;-65
2022/04/07 01:33:20;;;;;;;2.83;2.00;;;8.60;99.90;;;;;;8385863;28;20223;-68
2022/04/07 01:37:21;;;;;;;4.67;2.00;;;8.50;1.00;;;;;;8386356;28;20232;-66
2022/04/07 01:41:22;;;;;;;1.70;1.60;;;8.50;36.70;;;;;;8384862;28;20239;-66
2022/04/07 01:45:23;;;;;;;4.27;1.87;;;8.40;99.90;;;;;;8386865;28;20209;-66
2022/04/07 01:49:24;;;;;;;5.10;1.77;;;8.30;1.00;;;;;;8387045;28;20318;-65
2022/04/07 01:53:26;;;;;;;3.10;1.97;;;8.20;1.00;;;;;;8380479;28;20209;-65
2022/04/07 01:57:27;;;;;;;3.40;2.23;;;8.10;99.90;;;;;;8385724;28;20259;-65
2022/04/07 02:01:28;;;;;;;2.10;1.57;;;8.10;99.90;;;;;;8354197;28;20252;-66
2022/04/07 02:05:29;;;;;;;2.60;2.00;;;8.20;99.90;;;;;;8385255;28;20331;-67
2022/04/07 02:09:33;;;;;;;2.60;1.80;;;8.20;99.90;;;;;;8371220;28;20554;-65
2022/04/07 02:13:34;;;;;;;2.77;2.00;;;8.30;68.40;;;;;;8351334;28;20209;-66
2022/04/07 02:17:35;;;;;;;2.63;2.03;;;8.30;10.50;;;;;;8375501;28;20300;-65
2022/04/07 02:21:35;;;;;;;4.50;2.27;;;8.30;1.00;;;;;;8383997;28;20221;-65
2022/04/07 02:25:36;;;;;;;3.47;2.10;;;8.20;99.90;;;;;;8374685;28;20213;-66
2022/04/07 02:29:37;;;;;;;3.60;2.10;;;8.10;99.90;;;;;;8383119;28;20231;-65
2022/04/07 02:33:39;;;;;;;3.47;2.10;;;8.10;1.00;;;;;;8383604;28;20215;-66
2022/04/07 02:37:40;;;;;;;2.60;2.40;;;8.00;53.90;;;;;;8382693;28;20209;-67
2022/04/07 02:41:40;;;;;;;4.70;2.90;;;7.90;99.90;;;;;;8383312;28;20224;-65
2022/04/07 02:45:41;;;;;;;3.40;2.20;;;7.90;99.90;;;;;;8381480;28;20565;-66
2022/04/07 02:49:42;;;;;;;3.20;2.37;;;7.90;99.90;;;;;;8383000;28;20205;-66
2022/04/07 02:53:43;;;;;;;2.50;2.30;;;7.80;99.90;;;;;;8382251;28;20213;-65
2022/04/07 02:57:44;;;;;;;3.43;2.50;;;7.80;1.00;;;;;;8383372;28;20216;-66
2022/04/07 03:01:45;;;;;;;4.90;2.37;;;7.90;99.90;;;;;;8384559;28;20228;-66
2022/04/07 03:05:46;;;;;;;3.57;2.33;;;7.90;99.90;;;;;;8382860;28;20216;-65
2022/04/07 03:09:47;;;;;;;2.63;1.63;;;7.90;84.50;;;;;;8349629;28;20198;-65
2022/04/07 03:13:48;;;;;;;2.77;2.00;;;7.90;56.60;;;;;;8350052;28;20241;-66
2022/04/07 03:17:49;;;;;;;2.70;1.90;;;7.80;99.90;;;;;;8377091;28;20205;-65
2022/04/07 03:21:49;;;;;;;2.40;1.33;;;7.80;99.90;;;;;;8381772;28;20229;-65
2022/04/07 03:25:50;;;;;;;3.43;1.80;;;7.70;99.90;;;;;;8373154;28;20205;-66
2022/04/07 03:29:51;;;;;;;3.27;2.03;;;7.70;99.90;;;;;;8365361;28;20205;-64
2022/04/07 03:33:52;;;;;;;2.10;1.73;;;7.80;5.40;;;;;;8384050;28;20291;-67
2022/04/07 03:37:53;;;;;;;1.60;1.50;;;7.90;1.00;;;;;;8381157;28;20201;-65
2022/04/07 03:41:53;;;;;;;2.07;1.83;;;7.90;99.90;;;;;;8370494;28;20229;-65
2022/04/07 03:45:54;;;;;;;2.47;1.30;;;7.90;99.90;;;;;;8380737;28;20196;-64
2022/04/07 03:49:55;;;;;;;3.87;1.67;;;7.90;99.90;;;;;;8380881;28;20223;-65
2022/04/07 03:53:56;;;;;;;2.57;1.80;;;7.90;99.90;;;;;;8380543;28;20217;-67
2022/04/07 03:57:56;;;;;;;4.83;2.07;;;8.00;99.90;;;;;;8381379;28;20208;-65
2022/04/07 04:01:57;;;;;;;2.63;2.10;;;7.90;99.90;;;;;;8395447;28;20224;-67
2022/04/07 04:05:58;;;;;;;3.60;2.10;;;7.90;99.90;;;;;;8382449;28;20208;-65
2022/04/07 04:10:00;;;;;;;4.10;2.07;;;7.80;1.00;;;;;;8380938;28;20215;-64
2022/04/07 04:14:01;;;;;;;4.50;1.90;;;7.80;1.00;;;;;;8381372;28;20323;-65
2022/04/07 04:18:02;;;;;;;2.10;1.70;;;7.70;99.90;;;;;;8382689;28;20297;-64
2022/04/07 04:22:03;;;;;;;3.20;1.70;;;7.60;1.00;;;;;;8374874;28;20212;-65
2022/04/07 04:26:04;;;;;;;4.60;1.63;;;7.60;93.70;;;;;;8376254;28;20213;-64
2022/04/07 04:30:05;;;;;;;3.00;1.63;;;7.50;99.90;;;;;;8380067;28;20216;-65
2022/04/07 04:34:06;;;;;;;1.83;1.63;;;7.40;99.90;;;;;;8378181;28;20243;-64
2022/04/07 04:38:07;;;;;;;2.50;1.83;;;7.30;1.00;;;;;;8381491;28;20217;-65
2022/04/07 04:42:08;;;;;;;2.60;1.77;;;7.20;99.90;;;;;;8380146;28;20228;-66
2022/04/07 04:46:09;;;;;;;1.80;1.37;;;7.10;1.00;;;;;;8381273;28;20208;-66
2022/04/07 04:50:13;;;;;;;2.07;1.70;;;7.00;31.30;;;;;;8381414;28;20281;-64
2022/04/07 04:54:14;;;;;;;2.93;1.90;;;7.00;99.90;;;;;;8381083;28;20250;-64
2022/04/07 04:58:15;;;;;;;2.73;1.97;;;7.00;1.00;;;;;;8383752;28;20211;-65
2022/04/07 05:02:16;;;;;;;4.33;2.00;;;6.90;1.00;;;;;;8402268;28;20271;-64
2022/04/07 05:06:17;;;;;;;7.63;2.30;;;7.00;1.00;;;;;;8386483;28;20208;-64
2022/04/07 05:10:18;;;;;;;2.67;2.10;;;7.00;1.00;;;;;;8387655;28;20220;-66
2022/04/07 05:14:19;;;;;;;3.00;2.23;;;7.10;1.00;;;;;;8385472;28;20262;-65
2022/04/07 05:18:20;;;;;;;4.17;1.90;;;7.20;99.90;;;;;;8401687;28;20605;-65
2022/04/07 05:22:21;;;;;;;3.70;2.67;;;7.30;99.90;;;;;;8381877;28;20205;-66
2022/04/07 05:26:22;;;;;;;3.40;2.50;;;7.50;99.90;;;;;;8385909;28;20250;-65
2022/04/07 05:30:23;;;;;;;2.67;2.07;;;7.80;99.90;;;;;;8385141;28;20323;-65
2022/04/07 05:34:23;;;;;;;2.87;2.57;;;8.10;1.00;;;;;;8386132;28;20216;-64
2022/04/07 05:38:24;;;;;;;3.87;2.20;;;8.30;1.00;;;;;;8384185;28;20212;-64
2022/04/07 05:42:25;;;;;;;3.03;2.60;;;8.60;99.90;;;;;;8355144;28;20515;-65
2022/04/07 05:46:26;;;;;;;3.10;2.30;;;8.80;1.00;;;;;;8361247;28;20212;-66
2022/04/07 05:50:27;;;;;;;6.57;2.67;;;9.00;1.00;;;;;;8375964;28;20229;-66
2022/04/07 05:54:28;;;;;;;4.00;2.37;;;9.30;99.90;;;;;;8385220;28;20236;-64
2022/04/07 05:58:28;;;;;;;5.27;2.43;;;9.60;1.00;;;;;;8385171;28;20202;-65
2022/04/07 06:02:29;;;;;;;3.80;2.20;;;9.80;1.00;;;;;;8399490;28;20223;-65
2022/04/07 06:06:30;;;;;;;4.03;2.10;;;10.10;99.90;;;;;;8380903;28;20220;-64
2022/04/07 06:10:31;;;;;;;3.43;1.57;;;10.40;99.90;;;;;;8401421;28;20236;-64
2022/04/07 06:14:32;;;;;;;2.97;2.30;;;10.60;3.50;;;;;;8385845;28;20204;-64
2022/04/07 06:18:33;;;;;;;2.50;1.83;;;10.80;1.00;;;;;;8400569;28;20211;-64
2022/04/07 06:22:34;;;;;;;2.23;1.50;;;11.00;99.90;;;;;;8379229;28;20217;-64
2022/04/07 06:26:35;;;;;;;1.73;1.40;;;11.20;1.00;;;;;;8384889;28;20287;-64
2022/04/07 06:30:36;;;;;;;2.40;1.47;;;11.30;99.90;;;;;;8381141;28;20227;-64
2022/04/07 06:34:36;;;;;;;1.73;1.10;;;11.50;99.90;;;;;;8383497;28;20218;-65
2022/04/07 06:38:37;;;;;;;2.00;1.30;;;11.70;99.90;;;;;;8382652;28;20222;-65
2022/04/07 06:42:38;;;;;;;1.97;1.20;;;11.90;58.00;;;;;;8384096;28;20211;-65
2022/04/07 06:46:39;;;;;;;1.90;1.00;;;12.20;25.00;;;;;;8384717;28;20216;-66
2022/04/07 06:50:39;;;;;;;1.27;1.00;;;12.40;1.00;;;;;;8376212;28;20267;-66
2022/04/07 06:54:40;;;;;;;1.10;0.90;;;12.60;1.00;;;;;;8382930;28;20204;-65
2022/04/07 06:58:41;;;;;;;1.10;0.87;;;12.80;99.90;;;;;;8377700;28;20247;-65
2022/04/07 07:02:42;;;;;;;1.50;0.80;;;12.90;99.90;;;;;;8381531;28;20217;-64
2022/04/07 07:06:42;;;;;;;2.43;1.03;;;12.90;99.90;;;;;;8382267;28;20299;-66
2022/04/07 07:10:48;;;;;;;1.43;0.70;;;13.10;99.90;;;;;;8383656;28;20238;-64
2022/04/07 07:14:49;;;;;;;1.80;0.80;;;13.30;99.90;;;;;;8380046;28;20218;-65
2022/04/07 07:18:51;;;;;;;0.93;0.70;;;13.40;99.90;;;;;;8381848;28;20219;-65
2022/04/07 07:22:51;;;;;;;1.57;0.90;;;13.50;99.90;;;;;;8376015;28;20219;-65
2022/04/07 07:26:52;;;;;;;3.67;0.93;;;13.60;99.90;;;;;;8379786;28;20303;-62
2022/04/07 07:30:53;;;;;;;1.20;0.80;;;13.70;99.90;;;;;;8379056;28;20343;-62
2022/04/07 07:34:54;;;;;;;1.87;0.70;;;13.90;1.00;;;;;;8383410;28;20219;-61
2022/04/07 07:38:55;;;;;;;1.07;0.70;;;14.00;4.50;;;;;;8382519;28;20296;-64
2022/04/07 07:42:56;;;;;;;2.00;0.70;;;14.10;34.10;;;;;;8381751;28;20196;-64
2022/04/07 07:46:57;;;;;;;1.20;0.80;;;14.40;1.00;;;;;;8381947;28;20311;-60
2022/04/07 07:50:58;;;;;;;2.53;0.70;;;14.50;1.00;;;;;;8376144;28;20247;-65
2022/04/07 07:55:00;;;;;;;1.80;1.03;;;14.40;1.00;;;;;;8382680;28;20295;-65
2022/04/07 07:59:00;;;;;;;2.27;0.63;;;14.30;1.00;;;;;;8379638;28;20209;-66
2022/04/07 08:03:01;;;;;;;0.90;0.60;;;14.40;1.00;;;;;;8381468;28;20212;-65
2022/04/07 08:07:03;;;;;;;2.50;1.00;;;14.70;1.00;;;;;;8380015;28;20205;-65
2022/04/07 08:11:04;;;;;;;1.10;0.70;;;14.80;1.00;;;;;;8398054;28;20406;-66
2022/04/07 08:15:06;;;;;;;2.70;0.70;;;14.90;1.00;;;;;;8380720;28;20510;-65
2022/04/07 08:19:09;;;;;;;0.87;0.70;;;15.00;1.00;;;;;;8371874;28;20463;-64
2022/04/07 08:23:09;;;;;;;1.50;0.70;;;15.30;1.00;;;;;;8376476;28;20331;-65
2022/04/07 08:27:12;;;;;;;1.20;0.77;;;15.60;1.00;;;;;;8380489;28;20212;-64
2022/04/07 08:31:13;;;;;;;1.00;0.60;;;15.60;99.90;;;;;;8382660;28;20220;-65
2022/04/07 08:35:14;;;;;;;1.03;0.70;;;15.70;99.90;;;;;;8380402;28;20261;-67
2022/04/07 08:39:15;;;;;;;1.57;0.77;;;15.90;99.90;;;;;;8380540;28;20219;-65
2022/04/07 08:43:15;;;;;;;1.17;0.60;;;16.00;99.90;;;;;;8396515;28;20203;-64
2022/04/07 08:47:20;;;;;;;1.40;0.70;;;16.00;99.90;;;;;;8379817;28;20216;-64
2022/04/07 08:51:21;;;;;;;0.93;0.67;;;15.90;99.90;;;;;;8376622;28;20220;-65
2022/04/07 08:55:22;;;;;;;3.07;0.70;;;15.70;99.90;;;;;;8370783;28;20212;-64
2022/04/07 08:59:23;;;;;;;1.67;0.80;;;15.30;99.90;;;;;;8377947;28;20220;-64
2022/04/07 09:03:23;;;;;;;1.00;0.60;;;15.00;1.00;;;;;;8376693;28;20300;-66
2022/04/07 09:07:33;;;;;;;1.50;0.50;;;15.00;1.00;;;;;;8378203;28;20251;-65
2022/04/07 09:11:35;;;;;;;1.10;1.00;;;15.40;1.00;;;;;;8380182;28;20258;-64
2022/04/07 09:15:36;;;;;;;0.77;0.50;;;15.90;99.90;;;;;;8377108;28;20223;-65
2022/04/07 09:19:37;;;;;;;1.37;0.57;;;16.20;99.90;;;;;;8380435;28;20349;-64
2022/04/07 09:23:40;;;;;;;0.83;0.60;;;16.50;99.90;;;;;;8366779;28;20212;-66
2022/04/07 09:27:41;;;;;;;1.33;0.60;;;16.50;99.90;;;;;;8379767;28;20197;-64
2022/04/07 09:31:53;;;;;;;0.80;0.50;;;16.30;99.90;;;;;;8376506;28;20221;-62
2022/04/07 09:36:06;;;;;;;0.53;0.30;;;16.20;99.90;;;;;;8378740;28;20205;-64
2022/04/07 09:40:13;;;;;;;0.77;0.40;;;16.20;99.90;;;;;;8368719;28;20205;-64
2022/04/07 09:44:19;;;;;;;0.67;0.50;;;16.00;99.90;;;;;;8386911;28;20205;-65
2022/04/07 09:48:19;;;;;;;1.10;0.77;;;15.70;99.90;;;;;;8384063;28;20209;-63
2022/04/07 09:52:23;;;;;;;1.67;0.70;;;15.50;99.90;;;;;;8384428;28;20282;-63
2022/04/07 09:56:28;;;;;;;1.20;0.50;;;15.40;99.90;;;;;;8384526;28;20209;-62
2022/04/07 10:00:29;;;;;;;0.70;0.40;;;15.30;99.90;;;;;;8383502;28;20215;-64
2022/04/07 10:04:30;;;;;;;0.83;0.50;;;15.20;99.90;;;;;;8385774;28;20598;-64
2022/04/07 10:08:31;;;;;;;0.80;0.67;;;15.30;99.90;;;;;;8385693;28;20228;-65
2022/04/07 10:12:33;;;;;;;0.40;0.30;;;15.40;99.90;;;;;;8397910;28;20229;-64
2022/04/07 10:16:34;;;;;;;2.83;1.17;;;15.50;99.90;;;;;;8384556;28;20205;-64
2022/04/07 10:20:39;;;;;;;0.50;0.40;;;15.70;99.90;;;;;;8384339;28;20234;-63
2022/04/07 10:24:55;;;;;;;1.40;0.40;;;16.00;99.90;;;;;;8383638;28;20350;-63
2022/04/07 10:28:56;;;;;;;0.60;0.47;;;16.50;99.90;;;;;;8376605;28;20205;-66
2022/04/07 10:32:58;;;;;;;2.30;0.60;;;16.80;99.90;;;;;;8383507;28;20236;-67
2022/04/07 10:37:06;;;;;;;0.80;0.50;;;17.20;99.90;;;;;;8379804;28;20217;-65
2022/04/07 10:41:07;;;;;;;1.50;0.40;;;17.40;99.90;;;;;;8396860;28;20252;-62
2022/04/07 10:45:09;;;;;;;1.37;0.50;;;17.60;99.90;;;;;;8356315;28;20205;-65
2022/04/07 10:49:12;;;;;;;2.73;0.40;;;17.70;99.90;;;;;;8381100;28;20288;-65
2022/04/07 10:53:20;;;;;;;1.80;0.53;;;17.70;99.90;;;;;;8381922;28;20229;-64
2022/04/07 10:57:21;;;;;;;0.50;0.30;;;17.30;99.90;;;;;;8374603;28;20484;-66
2022/04/07 11:01:31;;;;;;;1.20;0.60;;;16.90;99.90;;;;;;8382284;28;20220;-65
2022/04/07 11:05:31;;;;;;;0.60;0.40;;;17.10;99.90;;;;;;8380039;28;20208;-65
2022/04/07 11:09:44;;;;;;;0.50;0.40;;;17.20;99.90;;;;;;8383013;28;20240;-63
2022/04/07 11:13:46;;;;;;;2.00;0.50;;;17.40;99.90;;;;;;8382207;28;20217;-66
2022/04/07 11:17:52;;;;;;;1.77;0.43;;;17.40;99.90;;;;;;8383637;28;20200;-66
2022/04/07 11:22:07;;;;;;;1.07;0.40;;;17.60;99.90;;;;;;8382840;28;20212;-64
2022/04/07 11:26:28;;;;;;;2.27;0.50;;;17.70;99.90;;;;;;8380868;28;20241;-66
2022/04/07 11:30:49;;;;;;;1.03;0.50;;;17.50;99.90;;;;;;8383540;28;20265;-64
2022/04/07 11:34:50;;;;;;;0.90;0.40;;;17.40;99.90;;;;;;8385676;28;20216;-65
2022/04/07 11:38:54;;;;;;;0.80;0.40;;;17.60;99.90;;;;;;8381881;28;20201;-65
2022/04/07 11:42:55;;;;;;;1.00;0.30;;;17.70;99.90;;;;;;8383176;28;20207;-64
2022/04/07 11:47:00;;;;;;;0.67;0.27;;;18.00;99.90;;;;;;8383073;28;20622;-64
2022/04/07 11:51:10;;;;;;;0.57;0.27;;;18.10;99.90;;;;;;8383835;28;20236;-65
2022/04/07 11:55:12;;;;;;;1.43;0.40;;;18.10;99.90;;;;;;8372946;28;20236;-65
2022/04/07 11:59:15;;;;;;;1.23;0.50;;;18.00;99.90;;;;;;8380741;28;20219;-62
2022/04/07 12:03:16;;;;;;;0.53;0.20;;;17.80;99.90;;;;;;8397645;28;20622;-63
2022/04/07 12:07:17;;;;;;;0.80;0.30;;;17.80;99.90;;;;;;8371616;28;20209;-63
2022/04/07 12:11:22;;;;;;;0.80;0.50;;;17.80;99.90;;;;;;8378955;28;20228;-64
2022/04/07 12:15:23;;;;;;;0.50;0.27;;;17.90;99.90;;;;;;8397886;28;20205;-64
2022/04/07 12:19:24;;;;;;;1.57;0.40;;;18.10;99.90;;;;;;8380004;28;20343;-65
2022/04/07 12:23:29;;;;;;;1.30;0.37;;;18.30;99.30;;;;;;8381914;28;20208;-64
2022/04/07 12:27:34;;;;;;;2.53;0.40;;;18.50;83.60;;;;;;8381148;28;20228;-63
2022/04/07 12:31:35;;;;;;;1.63;0.50;;;18.30;99.90;;;;;;8379026;28;20259;-65
2022/04/07 12:35:46;;;;;;;0.73;0.23;;;18.00;99.90;;;;;;8376536;28;20258;-66
2022/04/07 12:39:47;;;;;;;1.10;0.50;;;17.70;99.90;;;;;;8362483;28;20309;-64
2022/04/07 12:43:50;;;;;;;0.40;0.30;;;17.40;99.90;;;;;;8380481;28;20213;-64
2022/04/07 12:48:10;;;;;;;1.17;0.27;;;17.10;99.90;;;;;;8377691;28;20205;-64
2022/04/07 12:52:14;;;;;;;1.13;0.40;;;17.10;99.90;;;;;;8379546;28;20217;-64
2022/04/07 12:56:27;;;;;;;1.27;0.40;;;17.40;99.90;;;;;;8375355;28;20213;-65
2022/04/07 13:00:28;;;;;;;0.50;0.40;;;17.70;99.90;;;;;;8355986;28;20214;-63
2022/04/07 13:04:46;;;;;;;1.53;0.40;;;18.00;99.90;;;;;;8363574;28;20205;-65
2022/04/07 13:08:47;;;;;;;2.60;0.20;;;18.20;99.90;;;;;;8376680;28;20216;-64
2022/04/07 13:12:47;;;;;;;1.17;0.30;;;17.90;99.90;;;;;;8381490;28;20236;-64
2022/04/07 13:16:48;;;;;;;0.40;0.20;;;17.70;99.90;;;;;;8401691;28;20467;-62
2022/04/07 13:20:49;;;;;;;0.43;0.20;;;17.80;99.90;;;;;;8377019;28;20216;-64
2022/04/07 13:24:53;;;;;;;0.50;0.30;;;17.70;99.80;;;;;;8377384;28;20209;-64
2022/04/07 13:28:54;;;;;;;0.33;0.20;;;17.50;99.90;;;;;;8385160;28;20222;-63
2022/04/07 13:32:55;;;;;;;1.20;0.27;;;17.40;99.90;;;;;;8383062;28;20299;-65
2022/04/07 13:36:56;;;;;;;2.10;0.40;;;17.30;99.90;;;;;;8385607;28;20290;-65
2022/04/07 13:40:57;;;;;;;0.80;0.40;;;17.10;99.90;;;;;;8386549;28;20230;-64
2022/04/07 13:44:58;;;;;;;0.80;0.30;;;16.90;99.90;;;;;;8388234;28;20205;-65
2022/04/07 13:48:58;;;;;;;0.50;0.30;;;16.70;99.90;;;;;;8381849;28;20258;-63
2022/04/07 13:53:01;;;;;;;0.60;0.20;;;16.50;99.90;;;;;;8385368;28;20343;-66
2022/04/07 13:57:03;;;;;;;0.93;0.50;;;16.40;99.90;;;;;;8380478;28;20205;-63
2022/04/07 14:01:05;;;;;;;3.23;0.20;;;16.40;99.90;;;;;;8384435;28;20205;-65
2022/04/07 14:05:06;;;;;;;0.87;0.30;;;16.50;99.90;;;;;;8385521;28;20544;-64
2022/04/07 14:09:08;;;;;;;0.47;0.30;;;16.70;99.90;;;;;;8356949;28;20205;-63
2022/04/07 14:13:10;;;;;;;0.60;0.30;;;17.00;99.90;;;;;;8386515;28;20370;-63
2022/04/07 14:17:11;;;;;;;1.03;0.20;;;17.20;99.90;;;;;;8381818;28;20296;-63
2022/04/07 14:21:17;;;;;;;1.83;0.30;;;17.30;99.90;;;;;;8375254;28;20213;-63
2022/04/07 14:25:19;;;;;;;1.47;0.30;;;17.10;99.90;;;;;;8380422;28;20211;-66
2022/04/07 14:29:19;;;;;;;3.03;0.50;;;17.10;99.90;;;;;;8382448;28;20220;-66
2022/04/07 14:33:20;;;;;;;1.70;0.40;;;17.10;99.90;;;;;;8385353;28;20251;-64
2022/04/07 14:37:21;;;;;;;0.87;0.40;;;17.00;99.90;;;;;;8385030;28;20208;-65
2022/04/07 14:41:22;;;;;;;0.50;0.20;;;16.80;99.90;;;;;;8385272;28;20291;-64
2022/04/07 14:45:23;;;;;;;0.80;0.33;;;16.90;99.90;;;;;;8385160;28;20196;-64
2022/04/07 14:49:29;;;;;;;1.53;0.40;;;16.90;99.90;;;;;;8382511;28;20204;-63
2022/04/07 14:53:29;;;;;;;0.57;0.30;;;16.70;99.90;;;;;;8384682;28;20220;-64
2022/04/07 14:57:30;;;;;;;1.53;0.60;;;16.70;99.90;;;;;;8381972;28;20264;-66
2022/04/07 15:01:31;;;;;;;0.87;0.40;;;16.60;99.90;;;;;;8353368;28;20217;-64
2022/04/07 15:05:32;;;;;;;0.57;0.30;;;16.40;99.90;;;;;;8376182;28;20219;-64
2022/04/07 15:09:38;;;;;;;0.40;0.23;;;16.00;99.90;;;;;;8384197;28;20282;-64
2022/04/07 15:13:39;;;;;;;0.70;0.30;;;15.80;99.90;;;;;;8383943;28;20471;-64
2022/04/07 15:17:40;;;;;;;0.93;0.30;;;15.70;1.00;;;;;;8383787;28;20208;-66
2022/04/07 15:21:42;;;;;;;2.10;0.50;;;15.80;99.90;;;;;;8374228;28;20205;-65
2022/04/07 15:25:43;;;;;;;2.63;0.60;;;15.90;99.90;;;;;;8383473;28;20298;-65
2022/04/07 15:29:46;;;;;;;0.80;0.40;;;15.80;99.90;;;;;;8372404;28;20209;-64
2022/04/07 15:33:48;;;;;;;0.77;0.33;;;15.70;99.90;;;;;;8398097;28;20201;-64
2022/04/07 15:37:49;;;;;;;1.20;0.40;;;15.70;99.90;;;;;;8380789;28;20197;-65
2022/04/07 15:41:50;;;;;;;1.13;0.57;;;15.70;99.90;;;;;;8356897;28;20210;-65
2022/04/07 15:45:51;;;;;;;0.90;0.50;;;15.70;99.90;;;;;;8350499;28;20194;-64
2022/04/07 15:49:52;;;;;;;0.90;0.40;;;15.60;1.00;;;;;;8362728;28;20224;-65
2022/04/07 15:53:53;;;;;;;1.93;0.50;;;15.40;1.00;;;;;;8382556;28;20219;-64
2022/04/07 15:57:54;;;;;;;1.47;0.70;;;15.20;1.00;;;;;;8382315;28;20290;-63
2022/04/07 16:01:55;;;;;;;3.23;0.50;;;15.10;1.00;;;;;;8396240;28;20212;-64
2022/04/07 16:05:56;;;;;;;1.40;0.63;;;14.90;1.00;;;;;;8383038;28;20213;-64
2022/04/07 16:09:57;;;;;;;0.80;0.50;;;14.60;99.90;;;;;;8382548;28;20347;-65
2022/04/07 16:13:58;;;;;;;0.87;0.60;;;14.30;1.00;;;;;;8382941;28;20262;-65
2022/04/07 16:18:00;;;;;;;1.30;0.70;;;14.00;99.90;;;;;;8380062;28;20205;-65
2022/04/07 16:22:01;;;;;;;1.07;0.60;;;13.80;90.30;;;;;;8401193;28;20235;-65
2022/04/07 16:26:03;;;;;;;1.07;0.70;;;13.70;68.30;;;;;;8376485;28;20235;-65
2022/04/07 16:30:04;;;;;;;2.30;0.90;;;13.60;62.50;;;;;;8381003;28;20265;-64
2022/04/07 16:34:07;;;;;;;1.53;0.60;;;13.50;99.90;;;;;;8381035;28;20221;-64
2022/04/07 16:38:08;;;;;;;1.33;0.80;;;13.50;24.90;;;;;;8379988;28;20687;-64
2022/04/07 16:42:12;;;;;;;1.43;0.80;;;13.50;8.20;;;;;;8380899;28;20201;-64
2022/04/07 16:46:12;;;;;;;1.83;0.80;;;13.40;1.00;;;;;;8380052;28;20213;-66
2022/04/07 16:50:14;;;;;;;2.67;1.10;;;13.40;8.20;;;;;;8383487;28;20215;-63
2022/04/07 16:54:15;;;;;;;2.10;1.63;;;13.40;99.90;;;;;;8387370;28;20223;-64
2022/04/07 16:58:16;;;;;;;2.27;1.40;;;13.30;1.00;;;;;;8381156;28;20290;-64
2022/04/07 17:02:17;;;;;;;2.40;2.00;;;13.10;99.90;;;;;;8401506;28;20224;-65
2022/04/07 17:06:19;;;;;;;1.40;1.07;;;12.90;99.90;;;;;;8384182;28;20223;-64
2022/04/07 17:20:14;;;;;;;0.97;0.57;;;10.00;1.00;;;;;;8373857;28;20219;-64
2022/04/07 17:24:17;;;;;;;0.67;0.33;;;9.40;99.90;;;;;;8380325;28;20216;-65
2022/04/07 17:28:18;;;;;;;1.80;0.40;;;9.10;99.90;;;;;;8384427;28;20197;-67
2022/04/07 17:32:20;;;;;;;1.07;0.40;;;8.90;99.90;;;;;;8384999;28;20229;-64
2022/04/07 17:36:23;;;;;;;1.90;0.70;;;8.70;99.90;;;;;;8380935;28;20278;-65
2022/04/07 17:40:24;;;;;;;2.40;0.70;;;8.70;99.90;;;;;;8382654;28;20209;-67
2022/04/07 17:44:25;;;;;;;1.17;0.63;;;8.70;99.90;;;;;;8384739;28;20287;-65
2022/04/07 17:48:26;;;;;;;2.97;0.87;;;8.70;99.90;;;;;;8379009;28;20209;-68
2022/04/07 17:52:29;;;;;;;4.17;0.90;;;8.80;99.90;;;;;;8382815;28;20240;-67
2022/04/07 17:56:30;;;;;;;1.23;0.87;;;8.70;99.90;;;;;;8381496;28;20201;-65
2022/04/07 18:00:33;;;;;;;2.47;1.10;;;8.60;99.90;;;;;;8357347;28;20267;-64
2022/04/07 18:04:34;;;;;;;2.50;0.87;;;8.40;99.90;;;;;;8382489;28;20235;-65
2022/04/07 18:08:35;;;;;;;7.03;3.90;;;8.30;99.90;;;;;;8374098;28;20208;-65
2022/04/07 18:12:37;;;;;;;2.93;1.73;;;8.10;99.90;;;;;;8380801;28;20237;-65
2022/04/07 18:16:38;;;;;;;2.87;1.20;;;7.90;99.90;;;;;;8398448;28;20205;-67
2022/04/07 18:20:39;;;;;;;3.10;2.10;;;7.70;99.90;;;;;;8383698;28;20472;-66
2022/04/07 18:24:41;;;;;;;1.87;1.43;;;7.50;99.90;;;;;;8380720;28;20305;-67
2022/04/07 18:28:42;;;;;;;1.87;1.10;;;7.40;99.90;;;;;;8381885;28;20216;-66
2022/04/07 18:32:43;;;;;;;2.13;1.10;;;7.30;99.90;;;;;;8383613;28;20224;-65
2022/04/07 18:36:44;;;;;;;3.50;1.80;;;7.20;99.90;;;;;;8381437;28;20209;-66
2022/04/07 18:40:46;;;;;;;2.87;1.00;;;7.20;99.90;;;;;;8384513;28;20411;-66
2022/04/07 18:44:47;;;;;;;2.67;1.70;;;7.30;99.90;;;;;;8383867;28;20217;-66
2022/04/07 18:48:48;;;;;;;3.50;1.50;;;7.30;99.90;;;;;;8383089;28;20208;-67
2022/04/07 18:52:49;;;;;;;3.57;1.37;;;7.40;99.90;;;;;;8381224;28;20231;-66
2022/04/07 18:56:50;;;;;;;2.10;1.40;;;7.40;99.90;;;;;;8381685;28;20974;-66
2022/04/07 19:00:52;;;;;;;3.00;1.60;;;7.40;99.90;;;;;;8383440;28;20208;-68
2022/04/07 19:04:53;;;;;;;3.80;1.90;;;7.40;99.90;;;;;;8384593;28;20515;-66
2022/04/07 19:08:54;;;;;;;2.60;1.43;;;7.40;99.90;;;;;;8384516;28;20204;-67
2022/04/07 19:12:55;;;;;;;2.33;1.63;;;7.50;99.90;;;;;;8380547;28;20338;-66
2022/04/07 19:16:56;;;;;;;2.40;1.30;;;7.50;99.90;;;;;;8383516;28;20212;-66
2022/04/07 19:20:57;;;;;;;3.60;1.83;;;7.60;99.90;;;;;;8375068;28;20209;-67
2022/04/07 19:24:58;;;;;;;3.30;1.40;;;7.70;99.90;;;;;;8383512;28;20231;-66
2022/04/07 19:28:59;;;;;;;2.30;1.03;;;7.80;99.90;;;;;;8375833;28;20213;-67
2022/04/07 19:33:00;;;;;;;3.47;1.27;;;7.90;99.90;;;;;;8382162;28;20228;-67
2022/04/07 19:37:01;;;;;;;4.63;1.43;;;7.90;99.90;;;;;;8373859;28;20205;-65
2022/04/07 19:41:01;;;;;;;4.30;1.70;;;8.10;99.90;;;;;;8381598;28;20204;-66
2022/04/07 19:45:03;;;;;;;2.00;1.10;;;8.20;99.90;;;;;;8381745;28;20213;-67
2022/04/07 19:49:04;;;;;;;1.47;0.97;;;8.30;99.90;;;;;;8382095;28;20208;-68
2022/04/07 19:53:05;;;;;;;2.77;1.00;;;8.40;1.00;;;;;;8376597;28;20235;-67
2022/04/07 19:57:09;;;;;;;2.87;1.03;;;8.40;99.90;;;;;;8379493;28;20205;-65
2022/04/07 20:01:12;;;;;;;1.07;0.63;;;8.40;99.90;;;;;;8380119;28;20216;-66
2022/04/07 20:05:14;;;;;;;1.60;0.90;;;8.40;99.90;;;;;;8382022;28;20197;-65
2022/04/07 20:09:15;;;;;;;2.23;1.00;;;8.40;1.00;;;;;;8371941;28;20219;-66
2022/04/07 20:13:16;;;;;;;2.60;0.73;;;8.40;1.00;;;;;;8380848;28;20228;-67
2022/04/07 20:17:18;;;;;;;2.80;0.80;;;8.30;59.00;;;;;;8382339;28;20205;-64
2022/04/07 20:21:19;;;;;;;3.00;0.93;;;8.50;1.00;;;;;;8382301;28;20205;-66
2022/04/07 20:30:19;;;;;;;1.90;0.83;;;8.60;99.90;;;;;;8374517;28;20231;-64
2022/04/07 20:34:20;;;;;;;1.47;0.87;;;8.30;98.60;;;;;;8377316;28;20213;-64
2022/04/07 20:38:21;;;;;;;1.03;0.90;;;8.10;99.90;;;;;;8378197;28;20235;-65
2022/04/07 20:42:22;;;;;;;2.00;1.00;;;7.90;99.90;;;;;;8379683;28;20217;-65
2022/04/07 20:46:22;;;;;;;1.00;0.90;;;7.80;99.90;;;;;;8381053;28;20201;-65
2022/04/07 20:50:23;;;;;;;2.50;0.90;;;7.70;99.90;;;;;;8379757;28;20228;-66
2022/04/07 20:54:24;;;;;;;1.27;1.00;;;7.50;99.90;;;;;;8372922;28;20211;-65
2022/04/07 20:58:25;;;;;;;2.73;0.87;;;7.40;99.90;;;;;;8377867;28;20288;-65
2022/04/07 21:02:26;;;;;;;1.20;1.00;;;7.10;99.90;;;;;;8397252;28;20204;-67
2022/04/07 21:06:27;;;;;;;1.00;0.70;;;6.90;99.90;;;;;;8378381;28;20212;-66
2022/04/07 21:10:28;;;;;;;2.00;1.03;;;6.80;99.90;;;;;;8380600;28;20274;-64
2022/04/07 21:14:28;;;;;;;1.40;1.10;;;6.90;99.90;;;;;;8378875;28;20208;-65
2022/04/07 21:18:29;;;;;;;2.03;1.17;;;7.00;99.90;;;;;;8376338;28;20270;-67
2022/04/07 21:22:30;;;;;;;2.70;1.10;;;7.00;99.90;;;;;;8380800;28;20209;-66